Time;durP1;ratioP1;P1;durP2;ratioP2;P2;SDS_P1;SDS_P2;PMS_P1;PMS_P2;Temp;Humidity;BMP_temperature;BMP_pressure;BME280_temperature;BME280_humidity;BME280_pressure;Samples;Min_cycle;Max_cycle;Signal;HPM_P1;HPM_P2
2021/06/04 00:01:23;;;;;;;4.90;4.50;;;20.80;76.80;;;;;;5046564;28;20959;-49
2021/06/04 00:03:52;;;;;;;5.03;4.53;;;20.70;76.90;;;;;;5044840;28;20458;-49
2021/06/04 00:06:22;;;;;;;5.93;4.83;;;20.70;77.00;;;;;;5045954;28;21077;-49
2021/06/04 00:08:51;;;;;;;6.10;5.60;;;20.70;77.00;;;;;;5043527;28;20517;-49
2021/06/04 00:11:27;;;;;;;6.10;5.50;;;20.70;77.10;;;;;;5044808;28;20967;-49
2021/06/04 00:14:02;;;;;;;7.27;5.90;;;20.70;77.20;;;;;;5046290;28;20504;-49
2021/06/04 00:16:35;;;;;;;6.00;5.20;;;20.60;77.30;;;;;;5042997;28;20454;-49
2021/06/04 00:19:09;;;;;;;6.20;5.60;;;20.60;77.40;;;;;;5042871;28;20458;-49
2021/06/04 00:21:44;;;;;;;7.07;5.73;;;20.60;77.30;;;;;;5044333;28;20465;-49
2021/06/04 00:24:14;;;;;;;5.90;5.40;;;20.60;77.40;;;;;;5043916;28;20458;-49
2021/06/04 00:26:45;;;;;;;5.80;5.30;;;20.50;77.40;;;;;;5042851;28;20489;-49
2021/06/04 00:29:14;;;;;;;6.20;5.60;;;20.50;77.40;;;;;;5041720;28;20478;-49
2021/06/04 00:31:44;;;;;;;6.03;5.53;;;20.50;77.60;;;;;;5041644;28;20512;-49
2021/06/04 00:34:14;;;;;;;5.27;4.77;;;20.40;77.70;;;;;;5041274;28;20461;-49
2021/06/04 00:36:43;;;;;;;6.03;5.00;;;20.40;77.90;;;;;;5045367;28;20465;-49
2021/06/04 00:39:14;;;;;;;5.70;5.20;;;20.40;77.90;;;;;;5048826;28;20458;-49
2021/06/04 00:41:48;;;;;;;5.50;5.00;;;20.30;78.10;;;;;;5058971;28;21094;-49
2021/06/04 00:44:16;;;;;;;5.70;5.20;;;20.30;78.10;;;;;;5045229;28;20454;-49
2021/06/04 00:46:44;;;;;;;5.17;4.67;;;20.30;78.30;;;;;;5046628;28;20489;-49
2021/06/04 00:49:13;;;;;;;6.20;5.70;;;20.30;78.40;;;;;;5044686;28;20443;-49
2021/06/04 00:51:47;;;;;;;5.53;5.03;;;20.30;78.40;;;;;;5045432;28;20459;-49
2021/06/04 00:54:15;;;;;;;7.33;5.37;;;20.30;78.40;;;;;;5042914;28;20454;-49
2021/06/04 00:56:45;;;;;;;5.90;5.40;;;20.30;78.50;;;;;;5046594;28;21162;-49
2021/06/04 00:59:14;;;;;;;5.67;5.23;;;20.20;78.50;;;;;;5044406;28;20462;-49
2021/06/04 01:01:43;;;;;;;5.80;5.30;;;20.30;78.40;;;;;;5065695;28;20470;-49
2021/06/04 01:04:15;;;;;;;6.80;5.83;;;20.30;78.20;;;;;;5042061;28;20498;-49
2021/06/04 01:07:23;;;;;;;8.60;6.00;;;20.30;77.60;;;;;;5045596;28;20481;-49
2021/06/04 01:10:26;;;;;;;6.63;6.03;;;20.30;77.40;;;;;;5045956;28;20475;-49
2021/06/04 01:13:18;;;;;;;5.70;5.20;;;20.20;77.60;;;;;;4965449;28;20492;-49
2021/06/04 01:16:03;;;;;;;6.00;5.40;;;20.20;77.80;;;;;;5035337;28;20963;-49
2021/06/04 01:18:50;;;;;;;6.10;5.53;;;20.10;78.00;;;;;;5043812;28;21014;-49
2021/06/04 01:21:36;;;;;;;5.97;5.47;;;20.10;78.10;;;;;;5045421;28;20802;-49
2021/06/04 01:24:08;;;;;;;6.30;5.80;;;20.10;78.20;;;;;;5049293;28;20466;-49
2021/06/04 01:26:45;;;;;;;6.47;5.70;;;20.10;78.40;;;;;;5049523;28;20482;-49
2021/06/04 01:29:20;;;;;;;7.50;6.90;;;20.10;78.50;;;;;;5048091;28;21192;-49
2021/06/04 01:31:57;;;;;;;6.23;5.73;;;20.00;78.60;;;;;;5050474;28;20535;-49
2021/06/04 01:34:28;;;;;;;5.83;5.03;;;20.10;78.60;;;;;;5051733;28;20459;-49
2021/06/04 01:37:07;;;;;;;6.00;5.50;;;20.10;78.80;;;;;;5052204;28;20459;-49
2021/06/04 01:39:42;;;;;;;7.07;5.90;;;20.10;78.90;;;;;;5046583;28;20466;-49
2021/06/04 01:42:12;;;;;;;5.27;4.87;;;20.10;78.80;;;;;;5050968;28;20450;-49
2021/06/04 01:44:52;;;;;;;6.13;5.63;;;20.00;78.80;;;;;;5049254;28;20469;-49
2021/06/04 01:47:31;;;;;;;6.10;5.60;;;20.00;78.90;;;;;;5048716;28;20484;-49
2021/06/04 01:50:01;;;;;;;6.00;5.50;;;20.10;79.00;;;;;;5050054;28;20463;-49
2021/06/04 01:52:34;;;;;;;8.20;6.43;;;20.00;79.00;;;;;;5051107;28;20459;-49
2021/06/04 01:55:13;;;;;;;6.10;5.60;;;20.00;79.10;;;;;;5048041;28;20946;-49
2021/06/04 01:57:45;;;;;;;7.33;6.20;;;20.00;79.10;;;;;;5054006;28;20458;-49
2021/06/04 02:00:19;;;;;;;6.67;5.80;;;20.00;79.10;;;;;;5051250;28;20457;-49
2021/06/04 02:02:47;;;;;;;6.20;5.60;;;20.00;79.20;;;;;;5050158;28;20446;-49
2021/06/04 02:05:19;;;;;;;8.63;5.70;;;20.00;79.20;;;;;;5050824;28;20520;-49
2021/06/04 02:07:48;;;;;;;6.17;5.57;;;19.90;79.30;;;;;;5050774;28;20465;-48
2021/06/04 02:10:24;;;;;;;6.30;5.80;;;19.90;79.40;;;;;;5049516;28;20447;-49
2021/06/04 02:12:52;;;;;;;6.20;5.60;;;19.90;79.40;;;;;;5046214;28;20462;-49
2021/06/04 02:15:29;;;;;;;7.57;5.97;;;19.90;79.40;;;;;;5048668;28;20461;-49
2021/06/04 02:18:01;;;;;;;5.53;5.07;;;19.90;79.50;;;;;;5051565;28;21286;-49
2021/06/04 02:20:32;;;;;;;6.40;5.90;;;19.90;79.50;;;;;;5047168;28;20454;-49
2021/06/04 02:23:18;;;;;;;7.50;6.67;;;19.90;79.70;;;;;;5048398;28;20461;-49
2021/06/04 02:25:52;;;;;;;7.30;5.37;;;19.90;79.70;;;;;;5049078;28;20490;-49
2021/06/04 02:28:32;;;;;;;8.60;5.87;;;19.90;79.70;;;;;;5050114;28;21021;-49
2021/06/04 02:31:18;;;;;;;6.80;6.00;;;19.80;79.80;;;;;;5048558;28;20470;-49
2021/06/04 02:33:55;;;;;;;5.43;4.90;;;19.80;79.90;;;;;;5046775;28;20455;-49
2021/06/04 02:36:28;;;;;;;6.63;6.07;;;19.80;80.10;;;;;;5045149;28;20489;-49
2021/06/04 02:39:22;;;;;;;6.50;6.00;;;19.80;80.10;;;;;;5045280;28;20474;-49
2021/06/04 02:42:20;;;;;;;6.53;6.00;;;19.80;80.20;;;;;;5046041;28;20881;-49
2021/06/04 02:44:59;;;;;;;8.23;6.47;;;19.80;80.30;;;;;;5040304;28;21048;-49
2021/06/04 02:47:47;;;;;;;6.90;6.30;;;19.80;80.40;;;;;;5044478;28;20489;-49
2021/06/04 02:50:39;;;;;;;6.20;5.60;;;19.80;80.40;;;;;;5047342;28;20454;-49
2021/06/04 02:53:23;;;;;;;7.77;5.30;;;19.80;80.40;;;;;;5046893;28;20454;-49
2021/06/04 02:56:10;;;;;;;6.33;5.73;;;19.70;80.50;;;;;;5045957;28;20467;-49
2021/06/04 02:58:40;;;;;;;7.20;6.60;;;19.80;80.40;;;;;;5044361;28;20516;-49
2021/06/04 03:01:13;;;;;;;7.90;6.50;;;19.80;80.20;;;;;;5044621;28;20521;-46
2021/06/04 03:03:46;;;;;;;8.23;6.37;;;19.80;79.90;;;;;;5044618;28;20463;-46
2021/06/04 03:06:16;;;;;;;6.90;6.30;;;19.80;80.10;;;;;;5044039;28;20486;-45
2021/06/04 03:08:45;;;;;;;7.90;6.50;;;19.80;80.10;;;;;;5042428;28;20866;-45
2021/06/04 03:11:15;;;;;;;8.57;7.33;;;19.80;80.20;;;;;;5045612;28;20817;-45
2021/06/04 03:13:46;;;;;;;7.50;6.70;;;19.80;80.30;;;;;;5043787;28;20490;-45
2021/06/04 03:16:22;;;;;;;8.00;7.20;;;19.70;80.30;;;;;;5046751;28;20472;-45
2021/06/04 03:18:57;;;;;;;7.13;6.53;;;19.70;80.50;;;;;;5045263;28;20517;-45
2021/06/04 03:21:28;;;;;;;7.10;5.97;;;19.70;80.60;;;;;;5044313;28;20460;-46
2021/06/04 03:23:59;;;;;;;7.23;6.53;;;19.70;80.70;;;;;;5045049;28;20473;-45
2021/06/04 03:26:29;;;;;;;7.83;7.03;;;19.70;80.70;;;;;;5044900;28;20490;-45
2021/06/04 03:29:02;;;;;;;7.03;6.40;;;19.70;80.70;;;;;;5046742;28;20864;-45
2021/06/04 03:31:33;;;;;;;7.40;6.43;;;19.70;80.80;;;;;;5044922;28;20466;-45
2021/06/04 03:34:03;;;;;;;7.73;6.97;;;19.70;80.80;;;;;;5043509;28;20471;-45
2021/06/04 03:36:35;;;;;;;7.37;6.57;;;19.80;80.80;;;;;;5041698;28;20461;-45
2021/06/04 03:39:08;;;;;;;6.93;6.33;;;19.80;80.70;;;;;;5044080;28;20449;-45
2021/06/04 03:41:39;;;;;;;7.10;6.40;;;19.80;80.60;;;;;;5045205;28;20451;-45
2021/06/04 03:44:10;;;;;;;9.23;7.20;;;19.80;80.70;;;;;;5043827;28;20463;-45
2021/06/04 03:46:39;;;;;;;6.90;6.20;;;19.70;80.80;;;;;;5044002;28;20475;-45
2021/06/04 03:49:11;;;;;;;9.47;7.27;;;19.70;80.90;;;;;;5044788;28;20513;-45
2021/06/04 03:51:42;;;;;;;10.30;7.07;;;19.70;80.90;;;;;;5044455;28;20451;-45
2021/06/04 03:54:15;;;;;;;10.27;8.53;;;19.70;80.90;;;;;;5043752;28;20459;-45
2021/06/04 03:56:44;;;;;;;7.40;6.73;;;19.70;81.00;;;;;;5041437;28;20456;-45
2021/06/04 03:59:13;;;;;;;7.13;6.50;;;19.70;81.00;;;;;;5047692;28;20456;-45
2021/06/04 04:01:46;;;;;;;7.87;6.93;;;19.60;81.10;;;;;;5045088;28;20958;-45
2021/06/04 04:04:15;;;;;;;7.53;6.83;;;19.70;81.10;;;;;;5044558;28;20458;-46
2021/06/04 04:06:43;;;;;;;6.70;6.10;;;19.70;81.10;;;;;;5046284;28;20494;-46
2021/06/04 04:09:12;;;;;;;9.50;7.30;;;19.70;81.10;;;;;;5043683;28;21001;-46
2021/06/04 04:11:43;;;;;;;8.43;7.73;;;19.70;81.20;;;;;;5046178;28;20463;-46
2021/06/04 04:14:11;;;;;;;6.90;6.30;;;19.70;81.20;;;;;;5042377;28;20482;-46
2021/06/04 04:16:39;;;;;;;8.63;6.87;;;19.80;81.10;;;;;;5046557;28;20458;-46
2021/06/04 04:19:07;;;;;;;7.23;6.53;;;19.80;81.10;;;;;;5041489;28;20554;-46
2021/06/04 04:21:36;;;;;;;8.47;7.67;;;19.70;81.10;;;;;;5045106;28;20454;-46
2021/06/04 04:24:11;;;;;;;7.20;6.50;;;19.70;81.20;;;;;;5042891;28;21422;-46
2021/06/04 04:26:41;;;;;;;7.83;7.13;;;19.80;81.20;;;;;;5042790;28;20490;-46
2021/06/04 04:29:09;;;;;;;7.53;6.83;;;19.80;81.30;;;;;;5046741;28;21002;-46
2021/06/04 04:31:49;;;;;;;7.83;6.93;;;19.80;81.30;;;;;;5041701;28;20459;-46
2021/06/04 04:34:17;;;;;;;8.77;7.97;;;19.90;81.20;;;;;;5044910;28;20491;-46
2021/06/04 04:36:52;;;;;;;7.83;7.23;;;19.90;81.10;;;;;;5047240;28;20454;-46
2021/06/04 04:39:24;;;;;;;7.90;7.20;;;19.90;81.10;;;;;;5045550;28;20451;-46
2021/06/04 04:41:52;;;;;;;8.03;7.27;;;19.90;81.00;;;;;;5041679;28;20467;-46
2021/06/04 04:44:23;;;;;;;7.77;7.07;;;19.90;81.10;;;;;;5045613;28;20932;-46
2021/06/04 04:46:52;;;;;;;7.57;6.87;;;19.90;81.10;;;;;;5042407;28;20486;-45
2021/06/04 04:49:20;;;;;;;8.10;7.40;;;19.90;81.20;;;;;;5044537;28;21198;-46
2021/06/04 04:51:49;;;;;;;8.50;7.73;;;19.90;81.20;;;;;;5044625;28;20462;-46
2021/06/04 04:54:18;;;;;;;8.40;7.60;;;20.00;81.10;;;;;;5041871;28;20451;-46
2021/06/04 04:56:48;;;;;;;8.60;7.80;;;20.00;81.00;;;;;;5039976;28;20487;-46
2021/06/04 04:59:17;;;;;;;9.30;7.60;;;20.00;80.80;;;;;;5045302;28;20512;-46
2021/06/04 05:01:47;;;;;;;9.23;7.10;;;20.10;80.70;;;;;;5044634;28;20869;-46
2021/06/04 05:04:15;;;;;;;8.50;7.53;;;20.00;80.80;;;;;;5046634;28;20481;-46
2021/06/04 05:06:43;;;;;;;13.57;7.60;;;20.00;80.90;;;;;;5046931;28;20483;-46
2021/06/04 05:09:12;;;;;;;8.83;8.00;;;20.10;80.90;;;;;;5047031;28;20485;-46
2021/06/04 05:11:40;;;;;;;8.90;8.00;;;20.10;80.90;;;;;;5041388;28;20463;-46
2021/06/04 05:14:07;;;;;;;7.83;7.13;;;20.10;80.70;;;;;;5040188;28;20459;-46
2021/06/04 05:16:35;;;;;;;9.00;7.60;;;20.10;80.60;;;;;;5043964;28;20463;-46
2021/06/04 05:19:05;;;;;;;8.30;7.50;;;20.20;80.50;;;;;;5041662;28;20464;-46
2021/06/04 05:21:34;;;;;;;8.23;7.43;;;20.30;80.20;;;;;;5046399;28;20505;-46
2021/06/04 05:24:06;;;;;;;9.43;8.53;;;20.30;80.00;;;;;;5043752;28;20459;-46
2021/06/04 05:26:35;;;;;;;8.80;7.90;;;20.30;80.10;;;;;;5041358;28;20497;-45
2021/06/04 05:29:05;;;;;;;8.33;7.53;;;20.30;80.00;;;;;;5043640;28;20459;-45
2021/06/04 05:31:34;;;;;;;8.23;7.27;;;20.40;80.00;;;;;;5040738;28;20471;-45
2021/06/04 05:34:02;;;;;;;8.90;8.00;;;20.40;80.10;;;;;;5043782;28;20825;-45
2021/06/04 05:36:32;;;;;;;8.10;7.00;;;20.40;80.00;;;;;;5043998;28;20465;-45
2021/06/04 05:39:19;;;;;;;8.50;7.70;;;20.50;80.00;;;;;;5038509;28;20444;-45
2021/06/04 05:41:54;;;;;;;8.37;7.53;;;20.50;80.10;;;;;;5035920;28;20444;-45
2021/06/04 05:44:25;;;;;;;8.30;7.60;;;20.50;80.10;;;;;;5045916;28;20947;-45
2021/06/04 05:46:56;;;;;;;10.43;9.30;;;20.60;79.70;;;;;;5045838;28;20497;-45
2021/06/04 05:49:25;;;;;;;10.40;9.40;;;20.60;79.70;;;;;;5045561;28;20842;-46
2021/06/04 05:51:55;;;;;;;9.30;8.33;;;20.60;79.40;;;;;;5043720;28;20463;-45
2021/06/04 05:54:25;;;;;;;8.90;8.00;;;20.80;78.70;;;;;;5042311;28;20450;-45
2021/06/04 05:56:54;;;;;;;9.60;8.60;;;20.90;78.30;;;;;;5041352;28;20473;-45
2021/06/04 05:59:22;;;;;;;10.30;9.20;;;20.90;78.40;;;;;;5042579;28;20458;-45
2021/06/04 06:01:50;;;;;;;8.17;7.47;;;20.90;78.40;;;;;;5042236;28;20832;-46
2021/06/04 06:04:19;;;;;;;10.10;9.30;;;21.00;77.90;;;;;;5040944;28;20462;-45
2021/06/04 06:06:48;;;;;;;7.57;6.97;;;21.10;77.30;;;;;;5043635;28;20479;-45
2021/06/04 06:09:16;;;;;;;8.97;7.90;;;21.20;77.10;;;;;;5039285;28;20498;-45
2021/06/04 06:11:44;;;;;;;12.20;9.07;;;21.20;77.00;;;;;;5046490;28;20458;-45
2021/06/04 06:14:12;;;;;;;9.27;8.40;;;21.30;76.90;;;;;;5048798;28;20724;-45
2021/06/04 06:16:41;;;;;;;8.07;7.33;;;21.40;76.80;;;;;;5048723;28;20481;-45
2021/06/04 06:19:12;;;;;;;8.77;7.90;;;21.40;76.30;;;;;;5049087;28;20508;-46
2021/06/04 06:21:42;;;;;;;9.53;5.80;;;21.50;76.00;;;;;;5048575;28;20815;-45
2021/06/04 06:24:10;;;;;;;7.37;6.63;;;21.60;76.20;;;;;;5048007;28;20454;-45
2021/06/04 06:26:38;;;;;;;7.07;6.40;;;21.60;76.10;;;;;;5045762;28;20466;-46
2021/06/04 06:29:09;;;;;;;7.17;6.47;;;21.70;75.10;;;;;;5048297;28;20467;-46
2021/06/04 06:31:43;;;;;;;6.10;5.60;;;21.90;74.80;;;;;;5048188;28;21579;-46
2021/06/04 06:34:12;;;;;;;6.30;5.47;;;22.00;74.30;;;;;;5043944;28;20837;-46
2021/06/04 06:36:43;;;;;;;8.20;5.50;;;22.00;74.10;;;;;;5048149;28;20455;-46
2021/06/04 06:39:21;;;;;;;7.97;5.60;;;22.20;73.60;;;;;;5046508;28;20459;-46
2021/06/04 06:41:49;;;;;;;7.30;6.60;;;22.20;73.20;;;;;;5048482;28;20458;-46
2021/06/04 06:44:19;;;;;;;8.20;5.27;;;22.30;73.30;;;;;;5046286;28;20486;-45
2021/06/04 06:46:47;;;;;;;5.30;4.80;;;22.40;73.40;;;;;;5046674;28;20552;-45
2021/06/04 06:49:16;;;;;;;8.20;6.50;;;22.40;73.30;;;;;;5046463;28;20472;-45
2021/06/04 06:51:45;;;;;;;10.63;4.97;;;22.50;72.60;;;;;;5044967;28;20516;-45
2021/06/04 06:54:17;;;;;;;5.77;5.23;;;22.60;72.30;;;;;;5044807;28;20465;-45
2021/06/04 06:56:49;;;;;;;5.80;4.90;;;22.60;72.20;;;;;;5045243;28;20513;-45
2021/06/04 06:59:19;;;;;;;9.70;5.73;;;22.80;72.10;;;;;;5045672;28;20458;-45
2021/06/04 07:01:48;;;;;;;7.43;4.97;;;22.90;71.30;;;;;;5044292;28;20442;-45
2021/06/04 07:04:17;;;;;;;5.23;4.73;;;23.00;70.90;;;;;;5045290;28;20544;-45
2021/06/04 07:06:45;;;;;;;6.20;4.97;;;23.10;70.60;;;;;;5042836;28;20459;-45
2021/06/04 07:09:15;;;;;;;7.30;4.83;;;23.20;70.10;;;;;;5039904;28;20475;-45
2021/06/04 07:11:53;;;;;;;4.90;4.50;;;23.30;69.60;;;;;;5046491;28;20454;-45
2021/06/04 07:14:28;;;;;;;5.17;4.67;;;23.40;69.00;;;;;;5043780;28;20451;-46
2021/06/04 07:16:57;;;;;;;5.43;5.00;;;23.60;67.40;;;;;;5046227;28;20466;-45
2021/06/04 07:19:27;;;;;;;5.33;4.50;;;23.70;67.30;;;;;;5044284;28;20930;-46
2021/06/04 07:21:55;;;;;;;8.57;5.00;;;23.80;67.30;;;;;;5043010;28;20530;-45
2021/06/04 07:24:23;;;;;;;5.93;4.60;;;23.90;67.50;;;;;;5041307;28;20465;-45
2021/06/04 07:26:53;;;;;;;4.50;4.10;;;24.10;67.40;;;;;;5043287;28;20467;-46
2021/06/04 07:29:24;;;;;;;13.07;5.23;;;24.30;67.10;;;;;;5044712;28;20442;-46
2021/06/04 07:31:52;;;;;;;8.07;5.43;;;24.50;66.50;;;;;;5042173;28;20947;-45
2021/06/04 07:34:21;;;;;;;9.73;5.00;;;24.70;65.70;;;;;;5042387;28;21224;-45
2021/06/04 07:36:54;;;;;;;6.70;4.87;;;24.90;65.50;;;;;;5046221;28;20469;-46
2021/06/04 07:39:26;;;;;;;4.50;3.83;;;25.00;64.70;;;;;;5042176;28;20450;-45
2021/06/04 07:41:55;;;;;;;7.17;4.40;;;25.30;63.90;;;;;;5045836;28;20458;-46
2021/06/04 07:44:25;;;;;;;7.80;4.30;;;25.40;63.70;;;;;;5046411;28;20453;-46
2021/06/04 07:46:55;;;;;;;5.07;4.57;;;25.50;63.90;;;;;;5047917;28;20452;-46
2021/06/04 07:49:24;;;;;;;6.53;4.67;;;25.60;63.90;;;;;;5042002;28;20854;-46
2021/06/04 07:51:56;;;;;;;5.03;3.80;;;25.80;63.50;;;;;;5040831;28;22258;-46
2021/06/04 07:54:27;;;;;;;5.47;4.33;;;25.90;62.60;;;;;;5043640;28;20777;-46
2021/06/04 07:56:56;;;;;;;6.07;4.40;;;26.10;62.00;;;;;;5041174;28;20914;-45
2021/06/04 07:59:24;;;;;;;13.53;4.63;;;26.10;62.00;;;;;;5042991;28;20462;-47
2021/06/04 08:01:53;;;;;;;9.70;4.63;;;26.30;61.70;;;;;;5043139;28;20453;-46
2021/06/04 08:04:21;;;;;;;6.47;3.90;;;26.40;61.70;;;;;;5040688;28;20471;-45
2021/06/04 08:06:51;;;;;;;5.23;4.43;;;26.60;61.40;;;;;;5042771;28;20947;-46
2021/06/04 08:09:20;;;;;;;8.93;4.43;;;26.70;60.70;;;;;;5041703;28;20505;-45
2021/06/04 08:11:55;;;;;;;6.60;4.27;;;26.80;59.80;;;;;;5046723;28;20781;-46
2021/06/04 08:14:30;;;;;;;4.10;3.80;;;26.90;59.10;;;;;;5045863;28;20442;-46
2021/06/04 08:17:00;;;;;;;11.07;4.17;;;27.00;59.70;;;;;;5045130;28;20485;-46
2021/06/04 08:19:32;;;;;;;7.00;3.73;;;27.20;60.20;;;;;;5039783;28;20453;-46
2021/06/04 08:22:04;;;;;;;11.93;4.30;;;27.40;59.40;;;;;;5045036;28;20449;-45
2021/06/04 08:24:35;;;;;;;4.23;3.50;;;27.60;58.30;;;;;;5038259;28;20466;-46
2021/06/04 08:27:05;;;;;;;6.80;4.17;;;27.70;57.50;;;;;;5045832;28;20458;-46
2021/06/04 08:29:35;;;;;;;4.10;3.70;;;27.80;56.10;;;;;;5045634;28;20449;-45
2021/06/04 08:32:05;;;;;;;5.90;3.70;;;27.90;56.20;;;;;;5043676;28;20465;-46
2021/06/04 08:34:34;;;;;;;4.13;3.73;;;27.90;56.40;;;;;;5044961;28;20469;-46
2021/06/04 08:37:02;;;;;;;4.30;4.00;;;28.00;56.20;;;;;;5041740;28;20471;-46
2021/06/04 08:39:32;;;;;;;4.60;4.20;;;28.10;55.80;;;;;;5038294;28;20480;-46
2021/06/04 08:42:06;;;;;;;6.33;3.70;;;28.20;55.80;;;;;;5048525;28;20910;-46
2021/06/04 08:44:45;;;;;;;6.63;3.37;;;28.30;55.70;;;;;;5042949;28;20445;-46
2021/06/04 08:47:17;;;;;;;6.70;3.90;;;28.40;55.50;;;;;;5045764;28;20787;-46
2021/06/04 08:50:09;;;;;;;4.93;3.70;;;28.40;55.40;;;;;;5042696;28;20206;-46
2021/06/04 08:53:00;;;;;;;5.10;3.80;;;28.40;56.00;;;;;;5043173;28;20806;-46
2021/06/04 08:55:43;;;;;;;4.10;3.70;;;28.40;56.20;;;;;;5042695;28;20439;-45
2021/06/04 08:58:29;;;;;;;5.73;3.53;;;28.40;55.90;;;;;;5044003;28;20208;-45
2021/06/04 09:01:02;;;;;;;4.17;3.77;;;28.40;55.00;;;;;;5042453;28;20469;-45
2021/06/04 09:03:40;;;;;;;4.93;3.33;;;28.40;55.30;;;;;;5041069;28;20843;-45
2021/06/04 09:06:13;;;;;;;4.20;3.80;;;28.30;55.00;;;;;;5040604;28;20465;-45
2021/06/04 09:08:44;;;;;;;5.57;3.60;;;28.20;55.40;;;;;;5040617;28;20502;-45
2021/06/04 09:11:31;;;;;;;6.83;3.17;;;28.10;55.50;;;;;;5042627;28;20450;-46
2021/06/04 09:13:59;;;;;;;6.97;3.93;;;28.00;55.40;;;;;;5041677;28;20783;-45
2021/06/04 09:16:53;;;;;;;7.67;4.43;;;27.90;55.60;;;;;;5040930;28;20473;-46
2021/06/04 09:19:30;;;;;;;5.50;4.30;;;27.70;55.70;;;;;;5044785;28;21039;-46
2021/06/04 09:21:58;;;;;;;3.87;3.53;;;27.70;56.70;;;;;;5042948;28;21020;-44
2021/06/04 09:24:37;;;;;;;6.97;4.03;;;27.80;58.00;;;;;;5046343;28;20831;-44
2021/06/04 09:27:42;;;;;;;6.10;3.87;;;28.10;56.30;;;;;;5043119;28;20528;-44
2021/06/04 09:30:23;;;;;;;4.53;3.97;;;28.50;55.20;;;;;;5005863;28;20211;-45
2021/06/04 09:33:18;;;;;;;4.90;4.50;;;29.00;54.00;;;;;;5041348;28;20214;-45
2021/06/04 09:36:07;;;;;;;4.17;3.77;;;29.60;53.00;;;;;;5043285;28;20661;-45
2021/06/04 09:38:37;;;;;;;3.73;3.43;;;30.10;51.70;;;;;;5041377;28;20203;-45
2021/06/04 09:41:15;;;;;;;3.75;3.45;;;30.60;49.90;;;;;;5038327;28;20210;-45
2021/06/04 09:43:43;;;;;;;15.27;13.23;;;31.10;49.00;;;;;;5038515;28;20669;-45
2021/06/04 09:46:13;;;;;;;5.80;4.70;;;31.60;48.40;;;;;;5042480;28;20215;-45
2021/06/04 09:48:55;;;;;;;3.70;3.40;;;31.90;47.10;;;;;;5048308;28;20703;-45
2021/06/04 09:51:30;;;;;;;5.68;3.22;;;32.30;46.30;;;;;;5042352;28;20214;-45
2021/06/04 09:54:23;;;;;;;4.10;3.75;;;32.60;45.90;;;;;;5040444;28;20219;-45
2021/06/04 09:57:12;;;;;;;3.88;3.67;;;32.60;45.60;;;;;;5045027;28;20208;-45
2021/06/04 09:59:40;;;;;;;4.63;4.10;;;32.40;46.40;;;;;;5030776;28;20223;-45
2021/06/04 10:02:29;;;;;;;4.18;3.88;;;31.90;47.40;;;;;;5044928;28;20215;-45
2021/06/04 10:05:24;;;;;;;4.25;3.75;;;31.50;48.20;;;;;;5042501;28;20536;-45
2021/06/04 10:08:05;;;;;;;4.85;4.45;;;31.20;48.70;;;;;;5047306;28;20708;-45
2021/06/04 10:10:36;;;;;;;4.43;4.03;;;30.80;49.40;;;;;;5044370;28;20204;-45
2021/06/04 10:13:26;;;;;;;3.75;3.45;;;30.40;50.30;;;;;;5045363;28;20192;-45
2021/06/04 10:15:54;;;;;;;4.50;4.10;;;30.10;51.10;;;;;;5042887;28;20208;-45
2021/06/04 10:18:39;;;;;;;3.77;3.30;;;29.70;51.80;;;;;;5043226;28;20256;-45
2021/06/04 10:21:28;;;;;;;4.37;4.03;;;29.40;52.20;;;;;;5045321;28;20782;-45
2021/06/04 10:23:56;;;;;;;3.93;3.53;;;29.10;53.00;;;;;;5039826;28;20211;-45
2021/06/04 10:26:27;;;;;;;5.60;4.03;;;28.90;53.80;;;;;;5048668;28;20234;-45
2021/06/04 10:29:14;;;;;;;5.47;4.97;;;28.70;53.40;;;;;;5050596;28;20238;-48
2021/06/04 10:32:00;;;;;;;5.00;3.80;;;28.40;54.90;;;;;;5044093;28;20214;-48
2021/06/04 10:34:37;;;;;;;5.00;4.60;;;28.10;55.90;;;;;;5046718;28;20273;-48
2021/06/04 10:37:13;;;;;;;4.57;4.27;;;28.00;56.20;;;;;;5042947;28;20454;-48
2021/06/04 10:40:09;;;;;;;5.63;3.63;;;28.00;56.80;;;;;;5045810;28;20465;-47
2021/06/04 10:42:45;;;;;;;4.50;4.20;;;27.90;56.30;;;;;;5015312;28;20484;-47
2021/06/04 10:45:32;;;;;;;5.13;4.70;;;27.80;55.30;;;;;;5045759;28;20450;-48
2021/06/04 10:48:27;;;;;;;4.80;4.40;;;27.80;56.00;;;;;;5042465;28;20483;-48
2021/06/04 10:51:06;;;;;;;4.33;4.03;;;27.80;56.70;;;;;;5044067;28;20469;-48
2021/06/04 10:54:01;;;;;;;5.37;4.43;;;27.90;56.60;;;;;;5042249;28;20462;-48
2021/06/04 10:56:50;;;;;;;6.23;4.07;;;27.90;56.50;;;;;;5015516;28;20450;-48
2021/06/04 10:59:28;;;;;;;4.53;4.13;;;27.90;56.10;;;;;;5044472;28;20803;-48
2021/06/04 11:02:15;;;;;;;6.30;4.30;;;28.00;55.60;;;;;;5041308;28;20485;-47
2021/06/04 11:05:00;;;;;;;4.73;4.33;;;28.00;55.90;;;;;;5044071;28;20504;-48
2021/06/04 11:07:49;;;;;;;3.60;3.30;;;28.00;56.00;;;;;;5041760;28;20969;-48
2021/06/04 11:10:44;;;;;;;5.57;4.03;;;27.90;54.00;;;;;;5044965;28;20462;-47
2021/06/04 11:13:16;;;;;;;5.47;4.50;;;27.90;53.20;;;;;;5037585;28;20493;-48
2021/06/04 11:16:15;;;;;;;5.63;4.50;;;27.90;54.90;;;;;;5044423;28;20215;-48
2021/06/04 11:18:50;;;;;;;4.50;4.17;;;28.00;55.20;;;;;;5046071;28;20458;-48
2021/06/04 11:21:40;;;;;;;5.37;4.37;;;28.00;55.60;;;;;;5043310;28;20266;-48
2021/06/04 11:24:53;;;;;;;4.83;4.43;;;28.00;56.10;;;;;;5043914;28;20477;-47
2021/06/04 11:27:33;;;;;;;3.90;3.60;;;28.00;56.60;;;;;;5010353;28;20237;-47
2021/06/04 11:30:11;;;;;;;6.90;4.57;;;28.10;56.50;;;;;;5043270;28;20490;-48
2021/06/04 11:33:05;;;;;;;4.57;4.23;;;28.10;56.40;;;;;;5040645;28;20500;-47
2021/06/04 11:35:40;;;;;;;5.13;4.63;;;28.20;55.50;;;;;;5043033;28;20454;-48
2021/06/04 11:38:43;;;;;;;141.37;16.53;;;28.20;55.20;;;;;;5042722;28;20453;-47
2021/06/04 11:41:26;;;;;;;7.63;5.00;;;28.30;55.80;;;;;;5024019;28;20675;-47
2021/06/04 11:44:04;;;;;;;5.57;4.50;;;28.30;55.80;;;;;;5046152;28;20668;-47
2021/06/04 11:46:34;;;;;;;21.47;5.30;;;28.40;54.40;;;;;;5046362;28;20222;-47
2021/06/04 11:49:14;;;;;;;137.87;14.20;;;28.40;54.30;;;;;;5042394;28;20486;-48
2021/06/04 11:51:50;;;;;;;8.87;3.90;;;28.50;54.20;;;;;;5045189;28;20461;-47
2021/06/04 11:54:40;;;;;;;3.90;3.47;;;28.60;53.50;;;;;;5039122;28;20199;-47
2021/06/04 11:57:47;;;;;;;3.67;3.47;;;28.60;53.20;;;;;;5043094;28;20449;-47
2021/06/04 12:00:42;;;;;;;3.50;3.20;;;28.50;53.20;;;;;;5045674;28;20449;-47
2021/06/04 12:03:12;;;;;;;4.60;3.67;;;28.50;53.40;;;;;;5042243;28;20493;-48
2021/06/04 12:05:56;;;;;;;9.47;3.60;;;28.50;52.80;;;;;;5043073;28;20203;-48
2021/06/04 12:08:24;;;;;;;3.77;3.47;;;28.50;52.70;;;;;;5042465;28;20237;-48
2021/06/04 12:10:52;;;;;;;4.90;3.43;;;28.50;52.90;;;;;;5042534;28;20453;-48
2021/06/04 12:13:48;;;;;;;3.83;3.63;;;28.50;52.90;;;;;;5041524;28;20691;-48
2021/06/04 12:16:22;;;;;;;3.37;3.17;;;28.50;53.00;;;;;;5041664;28;20230;-48
2021/06/04 12:19:22;;;;;;;3.73;3.43;;;28.40;53.40;;;;;;5040483;28;20567;-48
2021/06/04 12:21:51;;;;;;;3.60;3.30;;;28.40;53.60;;;;;;5041319;28;20219;-48
2021/06/04 12:24:22;;;;;;;4.10;3.70;;;28.40;53.90;;;;;;5040848;28;20816;-48
2021/06/04 12:27:13;;;;;;;3.37;3.17;;;28.40;53.80;;;;;;5044730;28;20469;-48
2021/06/04 12:29:47;;;;;;;3.73;3.47;;;28.30;53.70;;;;;;5043512;28;20501;-48
2021/06/04 12:32:21;;;;;;;4.10;3.67;;;28.30;54.30;;;;;;5041389;28;20460;-48
2021/06/04 12:34:50;;;;;;;4.60;4.10;;;28.30;54.10;;;;;;5042597;28;20461;-48
2021/06/04 12:37:21;;;;;;;4.67;4.27;;;28.30;53.90;;;;;;5045531;28;20742;-48
2021/06/04 12:39:58;;;;;;;4.17;3.90;;;28.40;53.30;;;;;;5043339;28;20470;-48
2021/06/04 12:42:27;;;;;;;4.77;4.30;;;28.40;53.40;;;;;;5044507;28;20451;-47
2021/06/04 12:45:03;;;;;;;4.37;3.83;;;28.40;53.80;;;;;;5045644;28;20454;-48
2021/06/04 12:47:58;;;;;;;4.33;3.93;;;28.40;53.70;;;;;;5042750;28;20465;-49
2021/06/04 12:50:32;;;;;;;3.90;3.57;;;28.40;53.80;;;;;;5041486;28;20942;-49
2021/06/04 12:53:18;;;;;;;5.23;3.83;;;28.40;53.20;;;;;;5040729;28;20454;-49
2021/06/04 12:56:11;;;;;;;4.23;3.80;;;28.40;52.90;;;;;;5039327;28;20470;-49
2021/06/04 12:58:47;;;;;;;4.40;4.10;;;28.40;52.80;;;;;;5039270;28;20476;-49
2021/06/04 13:01:23;;;;;;;5.07;4.03;;;28.50;53.70;;;;;;5039106;28;20293;-49
2021/06/04 13:04:12;;;;;;;6.60;4.80;;;28.50;53.40;;;;;;5039443;28;21115;-50
2021/06/04 13:06:52;;;;;;;5.33;4.47;;;28.50;53.00;;;;;;5041819;28;20500;-50
2021/06/04 13:09:30;;;;;;;5.13;4.63;;;28.50;52.90;;;;;;5038064;28;20238;-50
2021/06/04 13:12:01;;;;;;;5.93;4.20;;;28.50;53.30;;;;;;5038806;28;20212;-50
2021/06/04 13:14:35;;;;;;;4.13;3.83;;;28.40;53.40;;;;;;5042662;28;20293;-49
2021/06/04 13:17:29;;;;;;;6.30;4.33;;;28.40;53.40;;;;;;5039905;28;20241;-49
2021/06/04 13:20:11;;;;;;;4.03;3.63;;;28.50;53.00;;;;;;5043498;28;20482;-48
2021/06/04 13:22:45;;;;;;;4.67;3.77;;;28.50;53.00;;;;;;5042357;28;20992;-48
2021/06/04 13:25:27;;;;;;;5.80;4.10;;;28.50;52.90;;;;;;5042317;28;20470;-48
2021/06/04 13:28:06;;;;;;;4.37;4.00;;;28.50;52.80;;;;;;5044714;28;20281;-48